sensor_id;sensor_type;location;lat;lon;timestamp;P1;durP1;ratioP1;P2;durP2;ratioP2
73168;SDS011;61379;59.732;30.468;2022-11-02T00:01:22;10.23;;;9.23;;
73168;SDS011;61379;59.732;30.468;2022-11-02T00:03:50;10.82;;;9.82;;
73168;SDS011;61379;59.732;30.468;2022-11-02T00:06:17;12.68;;;10.05;;
73168;SDS011;61379;59.732;30.468;2022-11-02T00:08:43;13.27;;;9.75;;
73168;SDS011;61379;59.732;30.468;2022-11-02T00:11:10;11.57;;;10.10;;
73168;SDS011;61379;59.732;30.468;2022-11-02T00:13:37;10.55;;;9.48;;
73168;SDS011;61379;59.732;30.468;2022-11-02T00:16:06;11.93;;;9.85;;
73168;SDS011;61379;59.732;30.468;2022-11-02T00:18:34;11.57;;;9.70;;
73168;SDS011;61379;59.732;30.468;2022-11-02T00:21:01;12.18;;;9.85;;
73168;SDS011;61379;59.732;30.468;2022-11-02T00:23:28;11.10;;;9.50;;
73168;SDS011;61379;59.732;30.468;2022-11-02T00:25:55;10.82;;;9.73;;
73168;SDS011;61379;59.732;30.468;2022-11-02T00:28:22;10.82;;;9.73;;
73168;SDS011;61379;59.732;30.468;2022-11-02T00:30:49;12.45;;;9.95;;
73168;SDS011;61379;59.732;30.468;2022-11-02T00:33:17;14.23;;;10.25;;
73168;SDS011;61379;59.732;30.468;2022-11-02T00:35:44;11.90;;;10.68;;
73168;SDS011;61379;59.732;30.468;2022-11-02T00:38:11;12.20;;;9.82;;
73168;SDS011;61379;59.732;30.468;2022-11-02T00:40:38;14.98;;;10.48;;
73168;SDS011;61379;59.732;30.468;2022-11-02T00:43:04;13.07;;;10.23;;
73168;SDS011;61379;59.732;30.468;2022-11-02T00:45:31;9.70;;;8.70;;
73168;SDS011;61379;59.732;30.468;2022-11-02T00:47:58;10.20;;;8.45;;
73168;SDS011;61379;59.732;30.468;2022-11-02T00:50:26;8.93;;;8.13;;
73168;SDS011;61379;59.732;30.468;2022-11-02T00:52:52;10.48;;;9.38;;
73168;SDS011;61379;59.732;30.468;2022-11-02T00:55:19;10.60;;;9.43;;
73168;SDS011;61379;59.732;30.468;2022-11-02T00:57:46;8.90;;;8.20;;
73168;SDS011;61379;59.732;30.468;2022-11-02T01:00:13;9.82;;;9.07;;
73168;SDS011;61379;59.732;30.468;2022-11-02T01:02:40;9.32;;;8.52;;
73168;SDS011;61379;59.732;30.468;2022-11-02T01:05:07;8.30;;;7.60;;
73168;SDS011;61379;59.732;30.468;2022-11-02T01:07:35;8.45;;;7.75;;
73168;SDS011;61379;59.732;30.468;2022-11-02T01:10:02;8.55;;;7.85;;
73168;SDS011;61379;59.732;30.468;2022-11-02T01:12:29;8.75;;;8.02;;
73168;SDS011;61379;59.732;30.468;2022-11-02T01:14:56;9.00;;;8.10;;
73168;SDS011;61379;59.732;30.468;2022-11-02T01:17:22;10.18;;;9.23;;
73168;SDS011;61379;59.732;30.468;2022-11-02T01:19:49;10.48;;;9.38;;
73168;SDS011;61379;59.732;30.468;2022-11-02T01:22:16;9.57;;;8.57;;
73168;SDS011;61379;59.732;30.468;2022-11-02T01:24:44;9.70;;;8.80;;
73168;SDS011;61379;59.732;30.468;2022-11-02T01:27:11;11.27;;;10.23;;
73168;SDS011;61379;59.732;30.468;2022-11-02T01:29:37;11.35;;;10.35;;
73168;SDS011;61379;59.732;30.468;2022-11-02T01:32:04;12.38;;;11.18;;
73168;SDS011;61379;59.732;30.468;2022-11-02T01:34:31;11.45;;;10.27;;
73168;SDS011;61379;59.732;30.468;2022-11-02T01:36:57;10.90;;;9.75;;
73168;SDS011;61379;59.732;30.468;2022-11-02T01:39:24;10.48;;;9.48;;
73168;SDS011;61379;59.732;30.468;2022-11-02T01:41:52;9.95;;;9.15;;
73168;SDS011;61379;59.732;30.468;2022-11-02T01:44:24;9.80;;;8.82;;
73168;SDS011;61379;59.732;30.468;2022-11-02T01:46:52;9.32;;;8.52;;
73168;SDS011;61379;59.732;30.468;2022-11-02T01:49:19;9.57;;;8.60;;
73168;SDS011;61379;59.732;30.468;2022-11-02T01:51:48;9.10;;;8.40;;
73168;SDS011;61379;59.732;30.468;2022-11-02T01:54:16;9.55;;;8.75;;
73168;SDS011;61379;59.732;30.468;2022-11-02T01:56:45;9.50;;;8.60;;
73168;SDS011;61379;59.732;30.468;2022-11-02T01:59:14;8.00;;;7.40;;
73168;SDS011;61379;59.732;30.468;2022-11-02T02:01:41;8.75;;;8.07;;
73168;SDS011;61379;59.732;30.468;2022-11-02T02:04:08;7.97;;;7.38;;
73168;SDS011;61379;59.732;30.468;2022-11-02T02:06:36;8.73;;;8.13;;
73168;SDS011;61379;59.732;30.468;2022-11-02T02:09:04;8.05;;;7.35;;
73168;SDS011;61379;59.732;30.468;2022-11-02T02:11:31;8.65;;;8.02;;
73168;SDS011;61379;59.732;30.468;2022-11-02T02:13:59;8.48;;;7.78;;
73168;SDS011;61379;59.732;30.468;2022-11-02T02:16:58;8.88;;;7.53;;
73168;SDS011;61379;59.732;30.468;2022-11-02T02:19:31;9.40;;;8.50;;
73168;SDS011;61379;59.732;30.468;2022-11-02T02:22:06;8.73;;;8.02;;
73168;SDS011;61379;59.732;30.468;2022-11-02T02:24:43;11.18;;;8.15;;
73168;SDS011;61379;59.732;30.468;2022-11-02T02:27:11;11.68;;;7.88;;
73168;SDS011;61379;59.732;30.468;2022-11-02T02:29:43;11.25;;;8.00;;
73168;SDS011;61379;59.732;30.468;2022-11-02T02:32:12;8.45;;;7.55;;
73168;SDS011;61379;59.732;30.468;2022-11-02T02:34:42;8.88;;;7.97;;
73168;SDS011;61379;59.732;30.468;2022-11-02T02:37:13;8.93;;;8.07;;
73168;SDS011;61379;59.732;30.468;2022-11-02T02:39:42;10.07;;;9.10;;
73168;SDS011;61379;59.732;30.468;2022-11-02T02:42:14;8.80;;;8.00;;
73168;SDS011;61379;59.732;30.468;2022-11-02T02:44:45;9.15;;;8.50;;
73168;SDS011;61379;59.732;30.468;2022-11-02T02:47:16;8.93;;;8.18;;
73168;SDS011;61379;59.732;30.468;2022-11-02T02:49:45;8.10;;;7.50;;
73168;SDS011;61379;59.732;30.468;2022-11-02T02:52:14;8.45;;;7.75;;
73168;SDS011;61379;59.732;30.468;2022-11-02T02:54:41;8.82;;;8.13;;
73168;SDS011;61379;59.732;30.468;2022-11-02T02:57:12;9.45;;;8.65;;
73168;SDS011;61379;59.732;30.468;2022-11-02T02:59:40;8.25;;;7.65;;
73168;SDS011;61379;59.732;30.468;2022-11-02T03:02:11;8.40;;;7.75;;
73168;SDS011;61379;59.732;30.468;2022-11-02T03:04:39;8.70;;;8.07;;
73168;SDS011;61379;59.732;30.468;2022-11-02T03:07:05;9.43;;;8.63;;
73168;SDS011;61379;59.732;30.468;2022-11-02T03:09:35;9.15;;;8.45;;
73168;SDS011;61379;59.732;30.468;2022-11-02T03:12:07;8.73;;;8.10;;
73168;SDS011;61379;59.732;30.468;2022-11-02T03:14:41;9.25;;;8.48;;
73168;SDS011;61379;59.732;30.468;2022-11-02T03:17:12;8.75;;;8.05;;
73168;SDS011;61379;59.732;30.468;2022-11-02T03:19:43;8.77;;;8.18;;
73168;SDS011;61379;59.732;30.468;2022-11-02T03:22:15;9.07;;;8.38;;
73168;SDS011;61379;59.732;30.468;2022-11-02T03:24:44;8.98;;;8.38;;
73168;SDS011;61379;59.732;30.468;2022-11-02T03:27:14;9.52;;;8.70;;
73168;SDS011;61379;59.732;30.468;2022-11-02T03:29:43;9.15;;;8.43;;
73168;SDS011;61379;59.732;30.468;2022-11-02T03:34:40;9.13;;;8.45;;
73168;SDS011;61379;59.732;30.468;2022-11-02T03:37:10;10.68;;;9.82;;
73168;SDS011;61379;59.732;30.468;2022-11-02T03:39:39;9.43;;;8.52;;
73168;SDS011;61379;59.732;30.468;2022-11-02T03:42:08;9.45;;;8.48;;
73168;SDS011;61379;59.732;30.468;2022-11-02T03:44:37;9.27;;;8.48;;
73168;SDS011;61379;59.732;30.468;2022-11-02T03:47:04;9.43;;;8.57;;
73168;SDS011;61379;59.732;30.468;2022-11-02T03:49:32;9.35;;;8.45;;
73168;SDS011;61379;59.732;30.468;2022-11-02T03:52:03;9.20;;;8.50;;
73168;SDS011;61379;59.732;30.468;2022-11-02T03:54:34;10.25;;;9.35;;
73168;SDS011;61379;59.732;30.468;2022-11-02T03:57:04;10.05;;;9.18;;
73168;SDS011;61379;59.732;30.468;2022-11-02T03:59:32;10.02;;;9.13;;
73168;SDS011;61379;59.732;30.468;2022-11-02T04:01:59;10.23;;;9.38;;
73168;SDS011;61379;59.732;30.468;2022-11-02T04:04:26;9.98;;;9.18;;
73168;SDS011;61379;59.732;30.468;2022-11-02T04:06:53;10.70;;;9.70;;
73168;SDS011;61379;59.732;30.468;2022-11-02T04:09:22;10.23;;;9.43;;
73168;SDS011;61379;59.732;30.468;2022-11-02T04:11:49;11.60;;;10.60;;
73168;SDS011;61379;59.732;30.468;2022-11-02T04:14:33;10.65;;;9.75;;
73168;SDS011;61379;59.732;30.468;2022-11-02T04:17:06;10.68;;;9.68;;
73168;SDS011;61379;59.732;30.468;2022-11-02T04:19:51;10.10;;;9.20;;
73168;SDS011;61379;59.732;30.468;2022-11-02T04:22:17;9.88;;;8.90;;
73168;SDS011;61379;59.732;30.468;2022-11-02T04:25:03;9.93;;;9.15;;
73168;SDS011;61379;59.732;30.468;2022-11-02T04:27:46;9.20;;;8.43;;
73168;SDS011;61379;59.732;30.468;2022-11-02T04:30:13;9.68;;;8.75;;
73168;SDS011;61379;59.732;30.468;2022-11-02T04:32:41;10.70;;;9.80;;
73168;SDS011;61379;59.732;30.468;2022-11-02T04:35:25;10.90;;;10.00;;
73168;SDS011;61379;59.732;30.468;2022-11-02T04:37:52;10.48;;;9.48;;
73168;SDS011;61379;59.732;30.468;2022-11-02T04:40:37;10.10;;;9.25;;
73168;SDS011;61379;59.732;30.468;2022-11-02T04:43:04;10.13;;;9.20;;
73168;SDS011;61379;59.732;30.468;2022-11-02T04:45:30;9.70;;;8.90;;
73168;SDS011;61379;59.732;30.468;2022-11-02T04:48:00;10.95;;;9.95;;
73168;SDS011;61379;59.732;30.468;2022-11-02T04:50:27;9.73;;;8.93;;
73168;SDS011;61379;59.732;30.468;2022-11-02T04:52:54;9.95;;;9.05;;
73168;SDS011;61379;59.732;30.468;2022-11-02T04:55:21;9.98;;;9.07;;
73168;SDS011;61379;59.732;30.468;2022-11-02T04:57:49;9.60;;;8.75;;
73168;SDS011;61379;59.732;30.468;2022-11-02T05:00:16;9.50;;;8.75;;
73168;SDS011;61379;59.732;30.468;2022-11-02T05:02:44;10.13;;;9.23;;
73168;SDS011;61379;59.732;30.468;2022-11-02T05:05:11;10.68;;;9.70;;
73168;SDS011;61379;59.732;30.468;2022-11-02T05:07:38;11.13;;;10.35;;
73168;SDS011;61379;59.732;30.468;2022-11-02T05:10:05;10.77;;;9.68;;
73168;SDS011;61379;59.732;30.468;2022-11-02T05:12:32;10.35;;;9.55;;
73168;SDS011;61379;59.732;30.468;2022-11-02T05:15:00;11.13;;;10.23;;
73168;SDS011;61379;59.732;30.468;2022-11-02T05:17:28;11.35;;;10.38;;
73168;SDS011;61379;59.732;30.468;2022-11-02T05:19:55;11.25;;;10.35;;
73168;SDS011;61379;59.732;30.468;2022-11-02T05:22:22;11.52;;;10.45;;
73168;SDS011;61379;59.732;30.468;2022-11-02T05:24:48;11.18;;;10.07;;
73168;SDS011;61379;59.732;30.468;2022-11-02T05:27:15;10.68;;;9.77;;
73168;SDS011;61379;59.732;30.468;2022-11-02T05:29:42;11.25;;;10.35;;
73168;SDS011;61379;59.732;30.468;2022-11-02T05:32:10;12.85;;;10.32;;
73168;SDS011;61379;59.732;30.468;2022-11-02T05:34:36;11.02;;;10.13;;
73168;SDS011;61379;59.732;30.468;2022-11-02T05:37:03;11.73;;;10.70;;
73168;SDS011;61379;59.732;30.468;2022-11-02T05:39:30;11.55;;;10.50;;
73168;SDS011;61379;59.732;30.468;2022-11-02T05:41:56;11.48;;;10.50;;
73168;SDS011;61379;59.732;30.468;2022-11-02T05:44:23;11.90;;;10.80;;
73168;SDS011;61379;59.732;30.468;2022-11-02T05:46:50;12.10;;;10.95;;
73168;SDS011;61379;59.732;30.468;2022-11-02T05:49:18;12.32;;;11.10;;
73168;SDS011;61379;59.732;30.468;2022-11-02T05:51:44;10.93;;;9.95;;
73168;SDS011;61379;59.732;30.468;2022-11-02T05:54:11;11.82;;;10.68;;
73168;SDS011;61379;59.732;30.468;2022-11-02T05:56:38;11.65;;;10.50;;
73168;SDS011;61379;59.732;30.468;2022-11-02T05:59:04;10.35;;;9.45;;
73168;SDS011;61379;59.732;30.468;2022-11-02T06:01:31;11.38;;;10.27;;
73168;SDS011;61379;59.732;30.468;2022-11-02T06:03:58;10.15;;;9.15;;
73168;SDS011;61379;59.732;30.468;2022-11-02T06:06:26;13.18;;;10.18;;
73168;SDS011;61379;59.732;30.468;2022-11-02T06:08:53;10.85;;;9.95;;
73168;SDS011;61379;59.732;30.468;2022-11-02T06:11:20;10.77;;;9.88;;
73168;SDS011;61379;59.732;30.468;2022-11-02T06:13:47;10.95;;;9.95;;
73168;SDS011;61379;59.732;30.468;2022-11-02T06:16:14;11.55;;;10.38;;
73168;SDS011;61379;59.732;30.468;2022-11-02T06:18:41;11.93;;;10.65;;
73168;SDS011;61379;59.732;30.468;2022-11-02T06:21:08;10.38;;;9.35;;
73168;SDS011;61379;59.732;30.468;2022-11-02T06:23:36;10.60;;;9.70;;
73168;SDS011;61379;59.732;30.468;2022-11-02T06:26:03;10.68;;;9.68;;
73168;SDS011;61379;59.732;30.468;2022-11-02T06:28:30;10.25;;;9.45;;
73168;SDS011;61379;59.732;30.468;2022-11-02T06:30:57;10.50;;;9.70;;
73168;SDS011;61379;59.732;30.468;2022-11-02T06:33:24;10.38;;;9.57;;
73168;SDS011;61379;59.732;30.468;2022-11-02T06:35:51;16.45;;;10.00;;
73168;SDS011;61379;59.732;30.468;2022-11-02T06:38:18;11.27;;;10.18;;
73168;SDS011;61379;59.732;30.468;2022-11-02T06:40:53;10.82;;;9.88;;
73168;SDS011;61379;59.732;30.468;2022-11-02T06:43:20;11.00;;;9.95;;
73168;SDS011;61379;59.732;30.468;2022-11-02T06:45:46;13.63;;;10.60;;
73168;SDS011;61379;59.732;30.468;2022-11-02T06:48:13;11.13;;;10.13;;
73168;SDS011;61379;59.732;30.468;2022-11-02T06:50:40;11.55;;;10.45;;
73168;SDS011;61379;59.732;30.468;2022-11-02T06:53:06;12.00;;;11.00;;
73168;SDS011;61379;59.732;30.468;2022-11-02T06:55:33;11.52;;;10.60;;
73168;SDS011;61379;59.732;30.468;2022-11-02T06:58:01;11.75;;;10.85;;
73168;SDS011;61379;59.732;30.468;2022-11-02T07:00:28;11.13;;;10.05;;
73168;SDS011;61379;59.732;30.468;2022-11-02T07:02:58;10.88;;;9.90;;
73168;SDS011;61379;59.732;30.468;2022-11-02T07:05:24;10.85;;;9.95;;
73168;SDS011;61379;59.732;30.468;2022-11-02T07:07:52;10.55;;;9.55;;
73168;SDS011;61379;59.732;30.468;2022-11-02T07:10:19;9.98;;;9.07;;
73168;SDS011;61379;59.732;30.468;2022-11-02T07:12:45;10.27;;;9.38;;
73168;SDS011;61379;59.732;30.468;2022-11-02T07:15:13;10.27;;;9.38;;
73168;SDS011;61379;59.732;30.468;2022-11-02T07:17:40;10.02;;;9.23;;
73168;SDS011;61379;59.732;30.468;2022-11-02T07:20:07;10.43;;;9.68;;
73168;SDS011;61379;59.732;30.468;2022-11-02T07:22:35;10.00;;;9.10;;
73168;SDS011;61379;59.732;30.468;2022-11-02T07:25:02;9.90;;;9.00;;
73168;SDS011;61379;59.732;30.468;2022-11-02T07:27:29;11.07;;;10.18;;
73168;SDS011;61379;59.732;30.468;2022-11-02T07:29:56;10.65;;;9.73;;
73168;SDS011;61379;59.732;30.468;2022-11-02T07:32:24;10.52;;;9.63;;
73168;SDS011;61379;59.732;30.468;2022-11-02T07:34:50;11.02;;;10.02;;
73168;SDS011;61379;59.732;30.468;2022-11-02T07:37:17;10.73;;;9.73;;
73168;SDS011;61379;59.732;30.468;2022-11-02T07:39:44;10.55;;;9.65;;
73168;SDS011;61379;59.732;30.468;2022-11-02T07:42:10;12.18;;;11.18;;
73168;SDS011;61379;59.732;30.468;2022-11-02T07:44:37;11.77;;;10.57;;
73168;SDS011;61379;59.732;30.468;2022-11-02T07:47:03;12.23;;;11.13;;
73168;SDS011;61379;59.732;30.468;2022-11-02T07:49:32;11.23;;;10.23;;
73168;SDS011;61379;59.732;30.468;2022-11-02T07:51:58;11.23;;;10.07;;
73168;SDS011;61379;59.732;30.468;2022-11-02T07:54:25;11.52;;;10.38;;
73168;SDS011;61379;59.732;30.468;2022-11-02T07:56:51;11.60;;;10.38;;
73168;SDS011;61379;59.732;30.468;2022-11-02T07:59:18;11.13;;;10.02;;
73168;SDS011;61379;59.732;30.468;2022-11-02T08:01:46;12.32;;;11.23;;
73168;SDS011;61379;59.732;30.468;2022-11-02T08:04:13;11.02;;;9.98;;
73168;SDS011;61379;59.732;30.468;2022-11-02T08:06:41;12.23;;;11.02;;
73168;SDS011;61379;59.732;30.468;2022-11-02T08:09:07;12.13;;;10.85;;
73168;SDS011;61379;59.732;30.468;2022-11-02T08:11:34;11.15;;;10.05;;
73168;SDS011;61379;59.732;30.468;2022-11-02T08:14:01;12.23;;;10.15;;
73168;SDS011;61379;59.732;30.468;2022-11-02T08:16:27;12.30;;;11.02;;
73168;SDS011;61379;59.732;30.468;2022-11-02T08:18:54;12.18;;;10.27;;
73168;SDS011;61379;59.732;30.468;2022-11-02T08:21:23;13.23;;;10.90;;
73168;SDS011;61379;59.732;30.468;2022-11-02T08:23:51;11.25;;;10.23;;
73168;SDS011;61379;59.732;30.468;2022-11-02T08:26:18;11.65;;;10.55;;
73168;SDS011;61379;59.732;30.468;2022-11-02T08:28:44;12.27;;;10.98;;
73168;SDS011;61379;59.732;30.468;2022-11-02T08:31:11;13.10;;;11.80;;
73168;SDS011;61379;59.732;30.468;2022-11-02T08:33:39;12.70;;;11.45;;
73168;SDS011;61379;59.732;30.468;2022-11-02T08:36:06;11.88;;;10.63;;
73168;SDS011;61379;59.732;30.468;2022-11-02T08:38:33;12.88;;;11.23;;
73168;SDS011;61379;59.732;30.468;2022-11-02T08:41:01;14.30;;;12.63;;
73168;SDS011;61379;59.732;30.468;2022-11-02T08:43:27;12.95;;;11.43;;
73168;SDS011;61379;59.732;30.468;2022-11-02T08:45:55;11.98;;;10.85;;
73168;SDS011;61379;59.732;30.468;2022-11-02T08:48:22;13.95;;;12.23;;
73168;SDS011;61379;59.732;30.468;2022-11-02T08:50:49;14.43;;;11.35;;
73168;SDS011;61379;59.732;30.468;2022-11-02T08:53:16;12.88;;;11.52;;
73168;SDS011;61379;59.732;30.468;2022-11-02T08:55:43;13.18;;;11.80;;
73168;SDS011;61379;59.732;30.468;2022-11-02T08:58:11;13.80;;;12.43;;
73168;SDS011;61379;59.732;30.468;2022-11-02T09:00:37;16.92;;;12.95;;
73168;SDS011;61379;59.732;30.468;2022-11-02T09:03:04;18.23;;;13.98;;
73168;SDS011;61379;59.732;30.468;2022-11-02T09:05:33;15.70;;;12.68;;
73168;SDS011;61379;59.732;30.468;2022-11-02T09:08:00;15.90;;;12.30;;
73168;SDS011;61379;59.732;30.468;2022-11-02T09:10:28;17.30;;;12.90;;
73168;SDS011;61379;59.732;30.468;2022-11-02T09:12:55;16.33;;;13.65;;
73168;SDS011;61379;59.732;30.468;2022-11-02T09:15:23;19.20;;;13.45;;
73168;SDS011;61379;59.732;30.468;2022-11-02T09:17:50;18.52;;;13.95;;
73168;SDS011;61379;59.732;30.468;2022-11-02T09:20:17;16.65;;;12.43;;
73168;SDS011;61379;59.732;30.468;2022-11-02T09:22:44;16.95;;;13.52;;
73168;SDS011;61379;59.732;30.468;2022-11-02T09:25:11;22.00;;;13.48;;
73168;SDS011;61379;59.732;30.468;2022-11-02T09:27:38;19.55;;;12.90;;
73168;SDS011;61379;59.732;30.468;2022-11-02T09:30:05;16.17;;;12.63;;
73168;SDS011;61379;59.732;30.468;2022-11-02T09:32:33;20.30;;;14.18;;
73168;SDS011;61379;59.732;30.468;2022-11-02T09:35:00;21.02;;;13.80;;
73168;SDS011;61379;59.732;30.468;2022-11-02T09:37:28;18.10;;;13.23;;
73168;SDS011;61379;59.732;30.468;2022-11-02T09:39:55;19.15;;;14.02;;
73168;SDS011;61379;59.732;30.468;2022-11-02T09:42:23;18.75;;;14.43;;
73168;SDS011;61379;59.732;30.468;2022-11-02T09:44:52;22.30;;;14.95;;
73168;SDS011;61379;59.732;30.468;2022-11-02T09:47:22;24.48;;;16.02;;
73168;SDS011;61379;59.732;30.468;2022-11-02T09:49:51;26.77;;;15.57;;
73168;SDS011;61379;59.732;30.468;2022-11-02T09:52:20;20.85;;;15.65;;
73168;SDS011;61379;59.732;30.468;2022-11-02T09:54:49;25.60;;;16.48;;
73168;SDS011;61379;59.732;30.468;2022-11-02T09:57:19;22.85;;;16.83;;
73168;SDS011;61379;59.732;30.468;2022-11-02T09:59:46;22.95;;;15.85;;
73168;SDS011;61379;59.732;30.468;2022-11-02T10:02:14;26.77;;;16.27;;
73168;SDS011;61379;59.732;30.468;2022-11-02T10:05:03;26.05;;;16.20;;
73168;SDS011;61379;59.732;30.468;2022-11-02T10:07:42;24.02;;;16.52;;
73168;SDS011;61379;59.732;30.468;2022-11-02T10:10:13;22.25;;;14.95;;
73168;SDS011;61379;59.732;30.468;2022-11-02T10:12:42;22.13;;;15.52;;
73168;SDS011;61379;59.732;30.468;2022-11-02T10:15:13;20.75;;;14.30;;
73168;SDS011;61379;59.732;30.468;2022-11-02T10:17:41;20.23;;;14.32;;
73168;SDS011;61379;59.732;30.468;2022-11-02T10:20:15;21.77;;;14.57;;
73168;SDS011;61379;59.732;30.468;2022-11-02T10:22:43;20.48;;;14.93;;
73168;SDS011;61379;59.732;30.468;2022-11-02T10:25:11;15.32;;;12.90;;
73168;SDS011;61379;59.732;30.468;2022-11-02T10:27:40;16.40;;;13.93;;
73168;SDS011;61379;59.732;30.468;2022-11-02T10:30:09;17.35;;;15.23;;
73168;SDS011;61379;59.732;30.468;2022-11-02T10:32:37;15.30;;;12.80;;
73168;SDS011;61379;59.732;30.468;2022-11-02T10:35:08;14.23;;;11.90;;
73168;SDS011;61379;59.732;30.468;2022-11-02T10:37:46;14.68;;;13.00;;
73168;SDS011;61379;59.732;30.468;2022-11-02T10:40:28;14.27;;;11.80;;
73168;SDS011;61379;59.732;30.468;2022-11-02T10:43:03;13.13;;;11.55;;
73168;SDS011;61379;59.732;30.468;2022-11-02T10:48:19;13.63;;;12.25;;
73168;SDS011;61379;59.732;30.468;2022-11-02T10:50:47;13.90;;;12.40;;
73168;SDS011;61379;59.732;30.468;2022-11-02T10:53:18;12.82;;;11.40;;
73168;SDS011;61379;59.732;30.468;2022-11-02T10:55:48;14.13;;;11.98;;
73168;SDS011;61379;59.732;30.468;2022-11-02T10:58:18;12.77;;;11.43;;
73168;SDS011;61379;59.732;30.468;2022-11-02T11:00:45;14.20;;;12.68;;
73168;SDS011;61379;59.732;30.468;2022-11-02T11:03:13;13.13;;;11.93;;
73168;SDS011;61379;59.732;30.468;2022-11-02T11:05:53;13.18;;;11.77;;
73168;SDS011;61379;59.732;30.468;2022-11-02T11:08:34;13.60;;;11.82;;
73168;SDS011;61379;59.732;30.468;2022-11-02T11:11:12;13.15;;;11.77;;
73168;SDS011;61379;59.732;30.468;2022-11-02T11:13:39;12.48;;;11.20;;
73168;SDS011;61379;59.732;30.468;2022-11-02T11:16:06;13.60;;;12.38;;
73168;SDS011;61379;59.732;30.468;2022-11-02T11:18:33;15.02;;;11.90;;
73168;SDS011;61379;59.732;30.468;2022-11-02T11:21:00;12.40;;;11.32;;
73168;SDS011;61379;59.732;30.468;2022-11-02T11:23:27;11.85;;;10.63;;
73168;SDS011;61379;59.732;30.468;2022-11-02T11:25:59;11.95;;;10.48;;
73168;SDS011;61379;59.732;30.468;2022-11-02T11:28:27;11.90;;;10.73;;
73168;SDS011;61379;59.732;30.468;2022-11-02T11:31:04;11.40;;;10.18;;
73168;SDS011;61379;59.732;30.468;2022-11-02T11:33:31;11.32;;;10.30;;
73168;SDS011;61379;59.732;30.468;2022-11-02T11:35:58;10.85;;;9.95;;
73168;SDS011;61379;59.732;30.468;2022-11-02T11:38:25;10.95;;;10.05;;
73168;SDS011;61379;59.732;30.468;2022-11-02T11:40:53;11.00;;;10.20;;
73168;SDS011;61379;59.732;30.468;2022-11-02T11:43:22;12.38;;;11.05;;
73168;SDS011;61379;59.732;30.468;2022-11-02T11:48:19;11.30;;;10.15;;
73168;SDS011;61379;59.732;30.468;2022-11-02T11:50:49;11.65;;;10.55;;
73168;SDS011;61379;59.732;30.468;2022-11-02T11:53:17;11.35;;;10.32;;
73168;SDS011;61379;59.732;30.468;2022-11-02T11:55:45;11.23;;;10.18;;
73168;SDS011;61379;59.732;30.468;2022-11-02T11:58:12;11.82;;;10.80;;
73168;SDS011;61379;59.732;30.468;2022-11-02T12:00:42;13.18;;;11.18;;
73168;SDS011;61379;59.732;30.468;2022-11-02T12:03:10;12.45;;;11.43;;
73168;SDS011;61379;59.732;30.468;2022-11-02T12:05:41;12.55;;;11.40;;
73168;SDS011;61379;59.732;30.468;2022-11-02T12:11:01;11.25;;;10.25;;
73168;SDS011;61379;59.732;30.468;2022-11-02T12:13:38;10.98;;;10.07;;
73168;SDS011;61379;59.732;30.468;2022-11-02T12:16:13;11.77;;;10.57;;
73168;SDS011;61379;59.732;30.468;2022-11-02T12:18:48;11.40;;;10.27;;
73168;SDS011;61379;59.732;30.468;2022-11-02T12:21:20;11.05;;;10.15;;
73168;SDS011;61379;59.732;30.468;2022-11-02T12:23:58;10.80;;;9.90;;
73168;SDS011;61379;59.732;30.468;2022-11-02T12:26:30;11.38;;;10.38;;
73168;SDS011;61379;59.732;30.468;2022-11-02T12:29:04;11.13;;;10.13;;
73168;SDS011;61379;59.732;30.468;2022-11-02T12:31:35;11.82;;;10.73;;
73168;SDS011;61379;59.732;30.468;2022-11-02T12:34:10;12.02;;;10.88;;
73168;SDS011;61379;59.732;30.468;2022-11-02T12:36:43;9.93;;;8.93;;
73168;SDS011;61379;59.732;30.468;2022-11-02T12:39:12;9.95;;;8.98;;
73168;SDS011;61379;59.732;30.468;2022-11-02T12:41:49;9.85;;;8.88;;
73168;SDS011;61379;59.732;30.468;2022-11-02T12:44:28;10.55;;;8.52;;
73168;SDS011;61379;59.732;30.468;2022-11-02T12:47:02;9.77;;;8.77;;
73168;SDS011;61379;59.732;30.468;2022-11-02T12:49:35;8.77;;;7.97;;
73168;SDS011;61379;59.732;30.468;2022-11-02T12:52:07;9.55;;;8.55;;
73168;SDS011;61379;59.732;30.468;2022-11-02T12:54:37;9.15;;;8.30;;
73168;SDS011;61379;59.732;30.468;2022-11-02T12:57:08;10.23;;;8.50;;
73168;SDS011;61379;59.732;30.468;2022-11-02T12:59:36;9.13;;;8.30;;
73168;SDS011;61379;59.732;30.468;2022-11-02T13:04:44;10.20;;;9.27;;
73168;SDS011;61379;59.732;30.468;2022-11-02T13:07:13;9.52;;;8.20;;
73168;SDS011;61379;59.732;30.468;2022-11-02T13:09:41;9.82;;;8.93;;
73168;SDS011;61379;59.732;30.468;2022-11-02T13:12:11;9.43;;;8.57;;
73168;SDS011;61379;59.732;30.468;2022-11-02T13:14:39;9.27;;;8.48;;
73168;SDS011;61379;59.732;30.468;2022-11-02T13:17:08;10.55;;;9.10;;
73168;SDS011;61379;59.732;30.468;2022-11-02T13:19:42;10.38;;;9.45;;
73168;SDS011;61379;59.732;30.468;2022-11-02T13:22:10;10.27;;;8.70;;
73168;SDS011;61379;59.732;30.468;2022-11-02T13:24:38;10.35;;;9.35;;
73168;SDS011;61379;59.732;30.468;2022-11-02T13:27:05;9.93;;;8.73;;
73168;SDS011;61379;59.732;30.468;2022-11-02T13:29:34;9.77;;;8.77;;
73168;SDS011;61379;59.732;30.468;2022-11-02T13:32:02;10.80;;;9.70;;
73168;SDS011;61379;59.732;30.468;2022-11-02T13:34:32;10.00;;;9.20;;
73168;SDS011;61379;59.732;30.468;2022-11-02T13:37:06;11.07;;;9.93;;
73168;SDS011;61379;59.732;30.468;2022-11-02T13:39:34;10.70;;;9.60;;
73168;SDS011;61379;59.732;30.468;2022-11-02T13:42:11;10.20;;;9.30;;
73168;SDS011;61379;59.732;30.468;2022-11-02T13:44:54;10.43;;;9.55;;
73168;SDS011;61379;59.732;30.468;2022-11-02T13:47:27;10.43;;;9.35;;
73168;SDS011;61379;59.732;30.468;2022-11-02T13:49:58;12.38;;;10.48;;
73168;SDS011;61379;59.732;30.468;2022-11-02T13:52:29;11.30;;;10.20;;
73168;SDS011;61379;59.732;30.468;2022-11-02T13:55:00;10.73;;;9.73;;
73168;SDS011;61379;59.732;30.468;2022-11-02T13:57:30;10.70;;;9.65;;
73168;SDS011;61379;59.732;30.468;2022-11-02T13:59:58;9.85;;;8.93;;
73168;SDS011;61379;59.732;30.468;2022-11-02T14:02:27;9.63;;;8.82;;
73168;SDS011;61379;59.732;30.468;2022-11-02T14:04:55;9.65;;;8.75;;
73168;SDS011;61379;59.732;30.468;2022-11-02T14:07:22;9.18;;;8.38;;
73168;SDS011;61379;59.732;30.468;2022-11-02T14:09:55;9.88;;;8.98;;
73168;SDS011;61379;59.732;30.468;2022-11-02T14:12:27;9.85;;;8.95;;
73168;SDS011;61379;59.732;30.468;2022-11-02T14:20:30;10.52;;;8.98;;
73168;SDS011;61379;59.732;30.468;2022-11-02T14:25:46;9.20;;;8.50;;
73168;SDS011;61379;59.732;30.468;2022-11-02T14:28:26;10.65;;;9.05;;
73168;SDS011;61379;59.732;30.468;2022-11-02T14:30:56;10.00;;;9.10;;
73168;SDS011;61379;59.732;30.468;2022-11-02T14:33:30;9.38;;;8.43;;
73168;SDS011;61379;59.732;30.468;2022-11-02T14:36:00;8.88;;;8.07;;
73168;SDS011;61379;59.732;30.468;2022-11-02T14:38:40;9.32;;;8.52;;
73168;SDS011;61379;59.732;30.468;2022-11-02T14:41:22;9.48;;;8.57;;
73168;SDS011;61379;59.732;30.468;2022-11-02T14:46:37;12.88;;;8.75;;
73168;SDS011;61379;59.732;30.468;2022-11-02T14:49:04;9.98;;;9.00;;
73168;SDS011;61379;59.732;30.468;2022-11-02T14:51:40;8.98;;;8.23;;
73168;SDS011;61379;59.732;30.468;2022-11-02T14:54:13;9.40;;;8.60;;